Terminal Aerodrome Forecast
Issued by NWS

Home | Current Version | Previous Version | Text Only | Print | Product List | Glossary On
Versions: 1 2 3 4 5 6 7 8 9 10 11 12 13 14 15 16 17 18 19 20 21 22 23 24 25 26 27 28 29 30 31 32 33 34 35 36
202
FTUS43 KDLH 211448 AAB
TAFBRD
TAF AMD
KBRD 211448Z 2115/2212 15003KT 1/4SM FZFG VV002
      TEMPO 2115/2117 1SM BR OVC004
     FM211700 17005KT P6SM SCT020
     FM212000 21010KT P6SM SCT200
     FM220600 19004KT P6SM BKN200=

USA.gov is the U.S. government's official web portal to all federal, state and local government web resources and services.